Austin Bergstrom International Airport Austin US
ICAO: KAUS
IATA: AUS
Category: Large
Scheduled Services: Yes

Elevation: 542 ft
TransAlt. 18000 ft.

Airport Communications:
APP/DEP:118.8
ASOS:128.875
ATIS:124.4
CLNC DEL:125.5
GND:121.7
ARNG OPS:36.8
SAN ANGELO RDO:122.55
TWR:121
UNICOM:122.95

KAUS Zoom In..

If you have problems with the map follow the link
https://www.worldairports.se/pages/airport.php?
ICAO=KAUS

Runways:

(A) RW 17L length 9000 ft width 150 ft
ILS 110.50 / hdg 173

(B) RW 17R length 12248 ft width 150 ft
ILS 110.95 / hdg 173

(C) RW 35L length 12248 ft width 150 ft
ILS 110.95 / hdg 353

(D) RW 35R length 9000 ft width 150 ft
ILS 110.50 / hdg 353

Location; KAUS
Day. 17 / Time. 02.53 Zulu
* Altimeter: 30.13
* Temperature: 06° c. 42.8°f.
* Wind from: 000° Speed 00 kn.
Dewpoint: 03° c.
Visibility: 10 Statute Miles.
Clouds: Scattered 25000 ft.

KAUS 170253Z 00000KT 10SM SCT250 06/03 A3013 RMK AO2 SLP206 T00610028 51010 $


Wind - Calm.

 
 
jpsmedia.com for Web Design worldairports.se 2018   terms of use